createdAt,value
2018-03-22T00:00:08.106Z,101450.02
2018-03-22T00:02:33.865Z,101447.38
2018-03-22T00:04:59.615Z,101451.31
2018-03-22T00:07:25.650Z,101452.48
2018-03-22T00:09:51.405Z,101447.37
2018-03-22T00:12:17.153Z,101451.93
2018-03-22T00:14:42.956Z,101441.62
2018-03-22T00:17:08.711Z,101443.90
2018-03-22T00:19:34.479Z,101442.25
2018-03-22T00:22:00.240Z,101440.49
2018-03-22T00:24:25.998Z,101439.58
2018-03-22T00:26:52.087Z,101437.98
2018-03-22T00:29:17.859Z,101430.52
2018-03-22T00:31:43.607Z,101405.91
2018-03-22T00:34:09.361Z,101420.11
2018-03-22T00:36:35.150Z,101410.72
2018-03-22T00:39:00.897Z,101404.81
2018-03-22T00:41:26.653Z,101401.72
2018-03-22T00:43:52.429Z,101403.84
2018-03-22T00:46:18.176Z,101389.89
2018-03-22T00:48:43.922Z,101394.22
2018-03-22T00:51:09.695Z,101380.70
2018-03-22T00:53:35.957Z,101369.69
2018-03-22T00:56:01.729Z,101367.92
2018-03-22T00:58:27.481Z,101354.38
2018-03-22T01:00:53.265Z,101351.84
2018-03-22T01:03:19.054Z,101342.81
2018-03-22T01:05:44.813Z,101338.78
2018-03-22T01:08:10.566Z,101328.27
2018-03-22T01:10:36.620Z,101320.70
2018-03-22T01:13:02.399Z,101310.36
2018-03-22T01:15:28.156Z,101309.96
2018-03-22T01:17:53.982Z,101305.15
2018-03-22T01:20:19.735Z,101304.42
2018-03-22T01:22:45.482Z,101300.91
2018-03-22T01:25:11.244Z,101287.63
2018-03-22T01:27:37.356Z,101288.50
2018-03-22T01:30:03.116Z,101286.85
2018-03-22T01:32:28.876Z,101277.72
2018-03-22T01:34:54.625Z,101276.70
2018-03-22T01:37:20.368Z,101270.91
2018-03-22T01:39:46.126Z,101253.70
2018-03-22T01:42:11.873Z,101249.36
2018-03-22T01:44:37.624Z,101243.03
2018-03-22T01:47:03.379Z,101234.39
2018-03-22T01:49:29.114Z,101232.70
2018-03-22T01:51:55.317Z,101231.61
2018-03-22T01:54:21.105Z,101229.95
2018-03-22T01:56:46.852Z,101228.96
2018-03-22T01:59:12.596Z,101215.36
2018-03-22T02:01:38.390Z,101211.83
2018-03-22T02:04:04.170Z,101202.53
2018-03-22T02:06:29.916Z,101194.59
2018-03-22T02:08:56.005Z,101185.38
2018-03-22T02:11:21.829Z,101177.69
2018-03-22T02:13:47.569Z,101173.73
2018-03-22T02:16:13.332Z,101173.17
2018-03-22T02:18:39.104Z,101168.57
2018-03-22T02:21:04.853Z,101168.12
2018-03-22T02:23:30.675Z,101149.52
2018-03-22T02:25:56.768Z,101139.27
2018-03-22T02:28:22.519Z,101130.17
2018-03-22T02:30:48.282Z,101122.06
2018-03-22T02:33:14.029Z,101112.40
2018-03-22T02:35:39.814Z,101099.59
2018-03-22T02:38:05.566Z,101089.30
2018-03-22T02:40:31.382Z,101087.92
2018-03-22T02:42:57.274Z,101078.00
2018-03-22T02:45:23.056Z,101064.57
2018-03-22T02:47:48.801Z,101066.84
2018-03-22T02:50:14.558Z,101062.23
2018-03-22T02:52:40.332Z,101053.29
2018-03-22T02:55:06.090Z,101053.61
2018-03-22T02:57:31.844Z,101048.09
2018-03-22T02:59:57.964Z,101036.84
2018-03-22T03:02:23.823Z,101018.56
2018-03-22T03:04:49.603Z,101015.65
2018-03-22T03:07:15.453Z,101008.84
2018-03-22T03:09:41.233Z,101001.86
2018-03-22T03:15:09.976Z,100987.72
2018-03-22T03:17:35.761Z,100978.59
2018-03-22T03:20:01.544Z,100958.87
2018-03-22T03:22:27.352Z,100964.87
2018-03-22T03:24:53.794Z,100955.53
2018-03-22T03:27:19.855Z,100956.16
2018-03-22T03:29:45.614Z,100949.25
2018-03-22T03:32:11.389Z,100940.12
2018-03-22T03:34:37.182Z,100935.13
2018-03-22T03:37:02.947Z,100927.42
2018-03-22T03:39:28.717Z,100928.09
2018-03-22T03:41:54.511Z,100914.91
2018-03-22T03:44:20.693Z,100919.25
2018-03-22T03:46:46.461Z,100913.19
2018-03-22T03:49:12.205Z,100905.72
2018-03-22T03:51:37.954Z,100903.37
2018-03-22T03:54:03.800Z,100896.95
2018-03-22T03:56:29.557Z,100894.77
2018-03-22T03:58:55.320Z,100882.05
2018-03-22T04:01:21.460Z,100857.91
2018-03-22T04:03:47.278Z,100876.93
2018-03-22T04:06:13.064Z,100879.91
2018-03-22T04:08:38.827Z,100869.57
2018-03-22T04:11:04.581Z,100852.22
2018-03-22T04:13:30.332Z,100847.77
2018-03-22T04:15:56.089Z,100849.23
2018-03-22T04:18:21.839Z,100832.63
2018-03-22T04:20:47.579Z,100831.36
2018-03-22T04:23:13.946Z,100821.02
2018-03-22T04:25:39.696Z,100819.69
2018-03-22T04:28:05.476Z,100813.48
2018-03-22T04:30:31.238Z,100809.87
2018-03-22T04:32:56.997Z,100820.22
2018-03-22T04:35:22.729Z,100818.12
2018-03-22T04:37:48.501Z,100809.70
2018-03-22T04:40:14.244Z,100800.23
2018-03-22T04:42:40.027Z,100805.77
2018-03-22T04:45:05.806Z,100790.39
2018-03-22T04:47:31.534Z,100784.26
2018-03-22T04:49:57.278Z,100795.47
2018-03-22T04:52:23.437Z,100799.86
2018-03-22T04:54:49.183Z,100797.47
2018-03-22T04:57:14.919Z,100794.70
2018-03-22T04:59:40.708Z,100804.59
2018-03-22T05:02:06.457Z,100793.05
2018-03-22T05:04:47.145Z,100799.61
2018-03-22T05:07:12.881Z,100798.17
2018-03-22T05:09:38.657Z,100799.19
2018-03-22T05:12:04.417Z,100792.55
2018-03-22T05:14:30.191Z,100782.28
2018-03-22T05:16:55.932Z,100778.48
2018-03-22T05:19:21.690Z,100766.55
2018-03-22T05:21:47.420Z,100762.09
2018-03-22T05:24:13.590Z,100762.81
2018-03-22T05:26:39.344Z,100751.72
2018-03-22T05:29:05.160Z,100741.61
2018-03-22T05:31:30.949Z,100742.41
2018-03-22T05:33:56.701Z,100734.94
2018-03-22T05:36:22.498Z,100744.76
2018-03-22T05:38:48.261Z,100737.43
2018-03-22T05:41:14.024Z,100730.30
2018-03-22T05:43:39.792Z,100728.20
2018-03-22T05:46:05.549Z,100712.71
2018-03-22T05:48:31.339Z,100717.13
2018-03-22T05:50:57.077Z,100737.94
2018-03-22T05:53:23.434Z,100726.30
2018-03-22T05:55:49.207Z,100739.14
2018-03-22T05:58:14.996Z,100733.53
2018-03-22T06:00:40.740Z,100736.67
2018-03-22T06:03:06.588Z,100729.77
2018-03-22T06:05:32.323Z,100727.24
2018-03-22T06:07:58.060Z,100734.35
2018-03-22T06:10:23.832Z,100737.45
2018-03-22T06:12:49.577Z,100728.98
2018-03-22T06:15:15.313Z,100726.30
2018-03-22T06:17:41.082Z,100729.44
2018-03-22T06:20:06.835Z,100734.03
2018-03-22T06:22:32.719Z,100731.58
2018-03-22T06:24:58.481Z,100723.72
2018-03-22T06:27:24.252Z,100705.95
2018-03-22T06:29:50.010Z,100721.34
2018-03-22T06:32:15.757Z,100714.89
2018-03-22T06:34:41.525Z,100708.59
2018-03-22T06:37:07.308Z,100700.29
2018-03-22T06:39:33.075Z,100699.67
2018-03-22T06:41:58.825Z,100696.89
2018-03-22T06:44:24.600Z,100678.97
2018-03-22T06:46:50.397Z,100680.91
2018-03-22T06:49:16.168Z,100670.85
2018-03-22T06:51:41.941Z,100664.27
2018-03-22T06:54:08.188Z,100645.69
2018-03-22T06:56:33.931Z,100676.67
2018-03-22T06:58:59.697Z,100669.55
2018-03-22T07:01:25.441Z,100661.44
2018-03-22T07:03:51.221Z,100654.27
2018-03-22T07:06:16.981Z,100656.50
2018-03-22T07:08:42.753Z,100646.44
2018-03-22T07:11:08.517Z,100652.34
2018-03-22T07:13:34.274Z,100639.66
2018-03-22T07:16:00.047Z,100636.81
2018-03-22T07:18:25.833Z,100626.17
2018-03-22T07:20:51.589Z,100620.56
2018-03-22T07:23:17.321Z,100622.80
2018-03-22T07:25:43.459Z,100617.83
2018-03-22T07:28:09.128Z,100615.31
2018-03-22T07:30:34.774Z,100607.00
2018-03-22T07:33:00.468Z,100615.34
2018-03-22T07:35:26.144Z,100597.18
2018-03-22T07:37:51.815Z,100602.59
2018-03-22T07:40:17.517Z,100592.48
2018-03-22T07:42:43.218Z,100581.21
2018-03-22T07:45:08.912Z,100595.05
2018-03-22T07:47:34.613Z,100594.43
2018-03-22T07:50:00.292Z,100599.05
2018-03-22T07:52:26.076Z,100588.97
2018-03-22T07:54:51.781Z,100593.24
2018-03-22T07:57:17.952Z,100580.13
2018-03-22T07:59:43.661Z,100583.06
2018-03-22T08:02:09.361Z,100585.84
2018-03-22T08:04:35.033Z,100584.83
2018-03-22T08:07:00.716Z,100584.07
2018-03-22T08:09:26.427Z,100587.55
2018-03-22T08:11:52.108Z,100592.52
2018-03-22T08:14:17.973Z,100587.90
2018-03-22T08:16:43.670Z,100582.48
2018-03-22T08:19:09.331Z,100585.16
2018-03-22T08:21:34.980Z,100582.58
2018-03-22T08:24:15.601Z,100584.89
2018-03-22T08:26:41.259Z,100585.19
2018-03-22T08:29:06.907Z,100587.38
2018-03-22T08:31:32.961Z,100591.66
2018-03-22T08:33:58.572Z,100588.13
2018-03-22T08:36:24.224Z,100575.36
2018-03-22T08:38:49.879Z,100584.84
2018-03-22T08:41:15.592Z,100577.56
2018-03-22T08:43:41.220Z,100574.23
2018-03-22T08:46:06.888Z,100562.74
2018-03-22T08:48:32.549Z,100557.02
2018-03-22T08:50:58.193Z,100553.05
2018-03-22T08:53:23.892Z,100554.66
2018-03-22T08:55:49.556Z,100560.48
2018-03-22T08:58:15.740Z,100557.30
2018-03-22T09:00:41.408Z,100557.78
2018-03-22T09:03:07.073Z,100561.98
2018-03-22T09:05:32.720Z,100563.89
2018-03-22T09:07:58.376Z,100563.41
2018-03-22T09:10:24.032Z,100561.46
2018-03-22T09:12:49.708Z,100562.36
2018-03-22T09:15:15.356Z,100555.80
2018-03-22T09:17:41.004Z,100551.33
2018-03-22T09:20:07.068Z,100552.63
2018-03-22T09:22:32.744Z,100553.67
2018-03-22T09:24:58.409Z,100552.55
2018-03-22T09:27:24.110Z,100561.27
2018-03-22T09:29:49.768Z,100566.14
2018-03-22T09:32:15.429Z,100569.23
2018-03-22T09:34:41.092Z,100564.06
2018-03-22T09:37:06.736Z,100558.72
2018-03-22T09:39:32.390Z,100556.05
2018-03-22T09:41:58.068Z,100552.66
2018-03-22T09:44:23.708Z,100557.00
2018-03-22T09:46:49.361Z,100553.14
2018-03-22T09:49:15.061Z,100542.52
2018-03-22T09:51:40.964Z,100552.69
2018-03-22T09:54:06.612Z,100553.05
2018-03-22T09:56:32.306Z,100551.31
2018-03-22T09:58:57.964Z,100548.94
2018-03-22T10:01:23.617Z,100552.95
2018-03-22T10:03:49.309Z,100557.14
2018-03-22T10:06:14.967Z,100565.06
2018-03-22T10:08:40.620Z,100561.24
2018-03-22T10:11:06.300Z,100563.84
2018-03-22T10:13:32.015Z,100568.00
2018-03-22T10:15:57.696Z,100564.55
2018-03-22T10:18:23.365Z,100561.34
2018-03-22T10:20:49.024Z,100561.80
2018-03-22T10:23:15.029Z,100556.62
2018-03-22T10:25:40.712Z,100549.84
2018-03-22T10:28:06.361Z,100555.27
2018-03-22T10:30:32.048Z,100555.83
2018-03-22T10:32:57.730Z,100551.19
2018-03-22T10:35:23.393Z,100558.74
2018-03-22T10:37:49.048Z,100552.59
2018-03-22T10:40:15.210Z,100552.51
2018-03-22T10:42:40.860Z,100551.19
2018-03-22T10:45:06.517Z,100551.13
2018-03-22T10:47:32.224Z,100534.63
2018-03-22T10:49:57.873Z,100539.88
2018-03-22T10:52:23.532Z,100536.77
2018-03-22T10:54:49.202Z,100531.89
2018-03-22T10:57:15.326Z,100533.30
2018-03-22T10:59:40.989Z,100539.86
2018-03-22T11:02:12.850Z,100539.25
2018-03-22T11:04:38.498Z,100540.06
2018-03-22T11:07:04.213Z,100536.38
2018-03-22T11:09:29.898Z,100532.67
2018-03-22T11:11:55.564Z,100532.72
2018-03-22T11:14:21.275Z,100519.69
2018-03-22T11:16:46.926Z,100530.33
2018-03-22T11:19:13.022Z,100525.64
2018-03-22T11:21:38.687Z,100525.73
2018-03-22T11:24:04.327Z,100522.27
2018-03-22T11:26:29.997Z,100522.86
2018-03-22T11:28:55.668Z,100527.49
2018-03-22T11:31:21.321Z,100522.86
2018-03-22T11:33:46.973Z,100524.53
2018-03-22T11:36:12.981Z,100531.97
2018-03-22T11:38:38.668Z,100535.50
2018-03-22T11:41:04.326Z,100533.97
2018-03-22T11:43:30.004Z,100524.00
2018-03-22T11:45:55.672Z,100542.22
2018-03-22T11:48:21.329Z,100532.97
2018-03-22T11:50:47.004Z,100528.07
2018-03-22T11:53:12.833Z,100530.71
2018-03-22T11:55:38.496Z,100529.77
2018-03-22T11:58:04.193Z,100526.88
2018-03-22T12:00:29.861Z,100525.62
2018-03-22T12:02:55.507Z,100536.84
2018-03-22T12:05:21.164Z,100533.85
2018-03-22T12:07:46.833Z,100527.08
2018-03-22T12:10:12.508Z,100512.86
2018-03-22T12:12:38.192Z,100534.25
2018-03-22T12:15:03.844Z,100532.86
2018-03-22T12:17:29.537Z,100535.77
2018-03-22T12:19:55.609Z,100535.41
2018-03-22T12:22:21.257Z,100542.12
2018-03-22T12:24:46.955Z,100540.53
2018-03-22T12:27:12.605Z,100535.06
2018-03-22T12:29:38.281Z,100543.55
2018-03-22T12:32:03.961Z,100541.05
2018-03-22T12:34:29.649Z,100540.95
2018-03-22T12:36:55.637Z,100545.61
2018-03-22T12:39:21.313Z,100543.39
2018-03-22T12:41:46.965Z,100550.98
2018-03-22T12:44:12.612Z,100555.69
2018-03-22T12:46:38.290Z,100553.13
2018-03-22T12:49:03.960Z,100561.99
2018-03-22T12:51:29.618Z,100559.53
2018-03-22T12:53:55.756Z,100561.72
2018-03-22T12:56:21.402Z,100559.49
2018-03-22T12:58:47.048Z,100574.00
2018-03-22T13:01:12.720Z,100567.10
2018-03-22T13:03:38.369Z,100583.65
2018-03-22T13:06:04.021Z,100573.00
2018-03-22T13:08:29.680Z,100566.96
2018-03-22T13:10:55.323Z,100574.57
2018-03-22T13:13:20.998Z,100564.27
2018-03-22T13:15:46.673Z,100569.91
2018-03-22T13:18:12.334Z,100564.80
2018-03-22T13:20:38.010Z,100564.29
2018-03-22T13:23:03.668Z,100562.33
2018-03-22T13:25:29.318Z,100559.48
2018-03-22T13:27:55.508Z,100565.88
2018-03-22T13:30:21.160Z,100563.45
2018-03-22T13:32:46.835Z,100561.30
2018-03-22T13:35:12.521Z,100551.88
2018-03-22T13:37:38.176Z,100561.63
2018-03-22T13:40:03.845Z,100579.23
2018-03-22T13:42:29.517Z,100560.71
2018-03-22T13:44:55.197Z,100561.59
2018-03-22T13:47:20.856Z,100559.70
2018-03-22T13:49:46.545Z,100559.23
2018-03-22T13:52:12.230Z,100567.17
2018-03-22T13:54:38.244Z,100560.38
2018-03-22T13:57:03.922Z,100574.36
2018-03-22T13:59:29.588Z,100570.83
2018-03-22T14:01:55.243Z,100567.22
2018-03-22T14:04:20.933Z,100569.97
2018-03-22T14:06:46.593Z,100570.29
2018-03-22T14:09:12.252Z,100576.11
2018-03-22T14:11:37.917Z,100576.87
2018-03-22T14:14:03.573Z,100563.95
2018-03-22T14:16:29.224Z,100575.83
2018-03-22T14:18:54.896Z,100579.75
2018-03-22T14:21:20.844Z,100573.22
2018-03-22T14:23:46.496Z,100573.55
2018-03-22T14:26:12.177Z,100569.49
2018-03-22T14:28:37.818Z,100566.59
2018-03-22T14:31:03.467Z,100571.21
2018-03-22T14:33:29.132Z,100564.83
2018-03-22T14:35:54.789Z,100573.38
2018-03-22T14:38:20.444Z,100567.19
2018-03-22T14:40:46.128Z,100571.11
2018-03-22T14:43:11.805Z,100573.38
2018-03-22T14:45:37.465Z,100567.66
2018-03-22T14:48:03.177Z,100573.79
2018-03-22T14:50:28.877Z,100576.69
2018-03-22T14:52:54.533Z,100582.90
2018-03-22T14:55:20.697Z,100583.97
2018-03-22T14:57:46.361Z,100589.34
2018-03-22T15:00:12.008Z,100591.85
2018-03-22T15:02:37.676Z,100585.05
2018-03-22T15:05:03.343Z,100586.50
2018-03-22T15:07:29.000Z,100571.92
2018-03-22T15:09:54.675Z,100574.06
2018-03-22T15:12:20.357Z,100570.25
2018-03-22T15:14:46.037Z,100565.81
2018-03-22T15:17:11.685Z,100562.78
2018-03-22T15:19:37.351Z,100570.14
2018-03-22T15:22:03.051Z,100562.45
2018-03-22T15:24:29.446Z,100577.27
2018-03-22T15:26:55.096Z,100577.81
2018-03-22T15:29:20.777Z,100578.74
2018-03-22T15:31:46.422Z,100578.09
2018-03-22T15:34:12.092Z,100572.37
2018-03-22T15:36:37.760Z,100570.17
2018-03-22T15:39:03.409Z,100570.22
2018-03-22T15:41:29.084Z,100569.16
2018-03-22T15:43:54.740Z,100569.96
2018-03-22T15:46:20.401Z,100572.94
2018-03-22T15:48:46.058Z,100584.58
2018-03-22T15:51:12.124Z,100593.98
2018-03-22T15:53:37.779Z,100596.48
2018-03-22T15:56:03.439Z,100597.27
2018-03-22T15:58:29.091Z,100599.70
2018-03-22T16:00:54.752Z,100593.65
2018-03-22T16:03:20.408Z,100591.16
2018-03-22T16:05:46.153Z,100587.97
2018-03-22T16:08:12.235Z,100591.98
2018-03-22T16:10:37.897Z,100583.27
2018-03-22T16:13:03.560Z,100582.58
2018-03-22T16:15:29.216Z,100589.48
2018-03-22T16:17:54.881Z,100594.96
2018-03-22T16:20:20.561Z,100602.49
2018-03-22T16:22:46.244Z,100588.08
2018-03-22T16:25:12.248Z,100583.46
2018-03-22T16:27:37.939Z,100590.57
2018-03-22T16:30:03.621Z,100590.27
2018-03-22T16:32:29.276Z,100595.72
2018-03-22T16:34:54.972Z,100591.98
2018-03-22T16:37:20.655Z,100595.48
2018-03-22T16:39:46.329Z,100596.48
2018-03-22T16:42:12.016Z,100595.72
2018-03-22T16:44:37.681Z,100605.10
2018-03-22T16:47:03.344Z,100613.16
2018-03-22T16:49:29.049Z,100610.25
2018-03-22T16:51:54.709Z,100615.05
2018-03-22T16:54:20.377Z,100619.31
2018-03-22T16:56:46.392Z,100617.95
2018-03-22T16:59:12.055Z,100621.00
2018-03-22T17:01:37.712Z,100621.00
2018-03-22T17:04:03.393Z,100617.28
2018-03-22T17:06:29.065Z,100626.30
2018-03-22T17:08:54.721Z,100619.01
2018-03-22T17:11:20.372Z,100626.36
2018-03-22T17:13:46.025Z,100625.14
2018-03-22T17:16:11.706Z,100625.05
2018-03-22T17:18:37.374Z,100630.86
2018-03-22T17:21:03.042Z,100632.52
2018-03-22T17:23:29.176Z,100635.23
2018-03-22T17:25:54.820Z,100634.61
2018-03-22T17:28:20.487Z,100635.09
2018-03-22T17:30:46.169Z,100634.38
2018-03-22T17:33:11.824Z,100639.84
2018-03-22T17:35:37.479Z,100642.62
2018-03-22T17:38:03.139Z,100619.81
2018-03-22T17:40:28.804Z,100635.47
2018-03-22T17:42:54.494Z,100643.59
2018-03-22T17:45:20.164Z,100639.16
2018-03-22T17:47:45.820Z,100642.16
2018-03-22T17:50:11.824Z,100645.25
2018-03-22T17:52:37.484Z,100647.64
2018-03-22T17:55:03.145Z,100656.12
2018-03-22T17:57:28.858Z,100655.70
2018-03-22T17:59:54.504Z,100652.48
2018-03-22T18:02:20.161Z,100656.67
2018-03-22T18:04:45.856Z,100657.86
2018-03-22T18:07:11.512Z,100659.11
2018-03-22T18:09:37.213Z,100656.26
2018-03-22T18:12:02.925Z,100658.27
2018-03-22T18:14:28.584Z,100657.83
2018-03-22T18:16:54.276Z,100664.36
2018-03-22T18:19:19.928Z,100656.52
2018-03-22T18:21:45.580Z,100650.87
2018-03-22T18:24:11.593Z,100663.73
2018-03-22T18:26:37.252Z,100655.41
2018-03-22T18:29:02.900Z,100649.83
2018-03-22T18:31:28.577Z,100647.61
2018-03-22T18:33:54.256Z,100651.89
2018-03-22T18:36:19.916Z,100667.23
2018-03-22T18:38:45.592Z,100663.78
2018-03-22T18:41:11.244Z,100677.11
2018-03-22T18:43:36.892Z,100676.20
2018-03-22T18:46:02.577Z,100677.70
2018-03-22T18:48:28.229Z,100677.21
2018-03-22T18:50:54.205Z,100685.38
2018-03-22T18:53:19.901Z,100684.28
2018-03-22T18:55:45.554Z,100683.33
2018-03-22T18:58:11.214Z,100686.06
2018-03-22T19:00:36.908Z,100690.73
2018-03-22T19:03:02.584Z,100686.12
2018-03-22T19:05:28.253Z,100689.52
2018-03-22T19:07:53.924Z,100686.45
2018-03-22T19:10:19.576Z,100688.59
2018-03-22T19:12:45.291Z,100684.23
2018-03-22T19:15:10.969Z,100680.53
2018-03-22T19:17:36.628Z,100687.27
2018-03-22T19:20:02.930Z,100692.50
2018-03-22T19:22:28.617Z,100677.64
2018-03-22T19:24:54.264Z,100681.33
2018-03-22T19:27:19.931Z,100682.00
2018-03-22T19:29:46.757Z,100682.09
2018-03-22T19:32:12.419Z,100683.34
2018-03-22T19:34:38.088Z,100680.49
2018-03-22T19:37:03.781Z,100689.78
2018-03-22T19:39:29.424Z,100684.32
2018-03-22T19:41:55.101Z,100690.79
2018-03-22T19:44:20.804Z,100683.14
2018-03-22T19:46:46.439Z,100689.90
2018-03-22T19:49:12.108Z,100690.95
2018-03-22T19:51:38.155Z,100694.27
2018-03-22T19:54:03.804Z,100693.25
2018-03-22T19:56:29.480Z,100694.39
2018-03-22T19:58:55.159Z,100695.98
2018-03-22T20:01:20.812Z,100695.48
2018-03-22T20:03:46.472Z,100685.62
2018-03-22T20:06:12.116Z,100688.17
2018-03-22T20:08:37.762Z,100690.83
2018-03-22T20:11:03.444Z,100692.30
2018-03-22T20:13:29.102Z,100689.90
2018-03-22T20:15:54.754Z,100699.17
2018-03-22T20:18:20.537Z,100693.84
2018-03-22T20:20:46.281Z,100701.89
2018-03-22T20:23:12.033Z,100704.03
2018-03-22T20:25:38.092Z,100705.55
2018-03-22T20:28:03.766Z,100699.55
2018-03-22T20:30:29.429Z,100692.83
2018-03-22T20:32:55.113Z,100690.23
2018-03-22T20:35:20.763Z,100701.03
2018-03-22T20:37:46.409Z,100703.96
2018-03-22T20:40:12.096Z,100703.62
2018-03-22T20:42:37.768Z,100704.26
2018-03-22T20:45:03.425Z,100702.36
2018-03-22T20:47:29.140Z,100695.30
2018-03-22T20:49:54.791Z,100702.70
2018-03-22T20:52:20.749Z,100697.03
2018-03-22T20:54:46.445Z,100701.56
2018-03-22T20:57:12.114Z,100694.00
2018-03-22T20:59:37.789Z,100690.86
2018-03-22T21:02:03.457Z,100696.52
2018-03-22T21:04:29.144Z,100697.38
2018-03-22T21:06:54.806Z,100693.43
2018-03-22T21:09:20.825Z,100688.64
2018-03-22T21:11:46.461Z,100690.20
2018-03-22T21:14:12.117Z,100686.95
2018-03-22T21:16:37.800Z,100693.59
2018-03-22T21:19:03.458Z,100688.72
2018-03-22T21:21:29.144Z,100692.83
2018-03-22T21:23:54.804Z,100690.39
2018-03-22T21:26:20.886Z,100695.94
2018-03-22T21:28:46.528Z,100696.23
2018-03-22T21:31:12.218Z,100698.16
2018-03-22T21:33:37.884Z,100691.69
2018-03-22T21:36:03.536Z,100691.81
2018-03-22T21:38:29.197Z,100697.91
2018-03-22T21:40:54.848Z,100692.58
2018-03-22T21:43:20.500Z,100694.97
2018-03-22T21:45:46.175Z,100695.30
2018-03-22T21:48:11.833Z,100698.25
2018-03-22T21:50:43.466Z,100694.20
2018-03-22T21:53:09.123Z,100687.87
2018-03-22T21:55:35.119Z,100696.27
2018-03-22T21:58:00.808Z,100695.44
2018-03-22T22:00:26.470Z,100690.77
2018-03-22T22:02:52.125Z,100691.86
2018-03-22T22:05:17.789Z,100688.07
2018-03-22T22:07:43.443Z,100691.94
2018-03-22T22:10:09.092Z,100697.69
2018-03-22T22:12:34.764Z,100704.06
2018-03-22T22:15:00.429Z,100706.08
2018-03-22T22:17:26.084Z,100699.73
2018-03-22T22:19:51.756Z,100695.25
2018-03-22T22:22:17.790Z,100698.63
2018-03-22T22:24:43.435Z,100693.00
2018-03-22T22:27:09.132Z,100704.08
2018-03-22T22:29:34.773Z,100695.06
2018-03-22T22:32:00.420Z,100683.02
2018-03-22T22:34:26.105Z,100680.66
2018-03-22T22:36:51.751Z,100684.40
2018-03-22T22:39:17.417Z,100673.28
2018-03-22T22:41:43.083Z,100675.00
2018-03-22T22:44:08.772Z,100673.05
2018-03-22T22:46:34.421Z,100667.73
2018-03-22T22:49:00.093Z,100669.55
2018-03-22T22:51:25.744Z,100669.61
2018-03-22T22:53:51.696Z,100672.94
2018-03-22T22:56:17.352Z,100662.55
2018-03-22T22:58:43.013Z,100665.05
2018-03-22T23:01:08.680Z,100658.13
2018-03-22T23:03:34.365Z,100663.36
2018-03-22T23:06:00.033Z,100666.55
2018-03-22T23:08:25.700Z,100660.20
2018-03-22T23:10:51.384Z,100655.48
2018-03-22T23:13:17.032Z,100655.67
2018-03-22T23:15:42.700Z,100653.97
2018-03-22T23:18:08.362Z,100653.08
2018-03-22T23:20:34.012Z,100652.88
2018-03-22T23:23:00.111Z,100654.50
2018-03-22T23:25:25.800Z,100643.30
2018-03-22T23:27:51.469Z,100643.86
2018-03-22T23:30:17.116Z,100635.08
2018-03-22T23:32:42.792Z,100636.66
2018-03-22T23:35:08.472Z,100637.36
2018-03-22T23:37:34.146Z,100638.78
2018-03-22T23:40:00.040Z,100643.52
2018-03-22T23:42:25.736Z,100638.66
2018-03-22T23:44:51.380Z,100627.74
2018-03-22T23:47:17.052Z,100630.56
2018-03-22T23:49:42.728Z,100629.02
2018-03-22T23:52:08.400Z,100631.17
2018-03-22T23:54:34.081Z,100630.48
2018-03-22T23:56:59.732Z,100631.30
2018-03-22T23:59:25.969Z,100625.17
